Hauptseite
METAR-TAF:

METAR-TAF

Flughäfen :

Flughafen Basel-Mülhausen

Basel-Mülhausen, Frankreich

Breite: 47-36N, Länge: 007-31E, Höhe: 270 m

Beobachtung

Neuester Wetterbericht von vor 23 Minuten, um 05:00 UTC
Wind 2 kt aus Nordwest
Temperatur 11°C
Luftfeuchtigkeit 100%
Luftdruck 1022 hPa
Sichtweite 10 km oder mehr
keine Wolken unter 1500 m und keine Kumulonimbus oder Gewitterwolken

METAR: LFSB 240500Z 31002KT CAVOK 11/11 Q1022 NOSIG

Zeit: 07:23 (05:23 UTC)

Prognose

Neuester Wetterbericht von vor 6 Stunden und 23 Minuten, um 23:00 UTC
Gültige Prognose vom 24 um 00 UTC bis 24 um 24 UTC
Wind 5 kt aus Nord/Nordwest
Sichtweite 10 km oder mehr
keine Wolken unter 1500 m und keine Kumulonimbus oder Gewitterwolken
Wahrscheinlichkeit 30% :
Zeitweise
vom 24 um 12 UTC bis 24 um 18 UTC
Leicht bewölkt in der Höhe von 6000 ft, Towering cumulus.

TAF: LFSB 232300Z 2400/2424 33005KT CAVOK PROB30 TEMPO 2412/2418 FEW060TCU

Wetterbeobachtungen und Prognosen von mehr als 4000 Flughäfen (METAR und TAF Bericht).

Die verfügbaren Stationen werden durch gelbe und rote Markierungen auf der Karte dargestellt.

Führen Sie die Maus auf sie, um den Namen der Station zu sehen.

Darauf klicken, um die Beobachtung von Wetterbeobachtungen und Prognosen zu sehen.

Um die Karte zu ändern : klicken Sie auf den grünen Tasten mit einem schwarzen Kreuz Zum Vergrößern, auf den grünen Button mit einem Gedankenstrich zu verkleinern, oder auf die grünen Pfeile für benachbarte Karten.


METAR-TAF: